Crab Orchard, Kentucky
Current Conditions -  °F | °C
As of 12:15 AM on Saturday 29 Nov 2014 (Local Time) from KI39 Reporting Station
Clear Clear  
Wind Chill: 30°   Ceiling: Unl
Heat Index: 37°   Visibility: 10mi
Dew Point: 19°   Wind: 12mph
Humidity: 48%   Direction: 200°SSW
Pressure: 30.1"   Gusts: 16mph
Location:  37.46°N, 84.51°W
Report Text: KI39 290515Z AUTO 20010G14KT 10SM CLR 03/M07 A3010 RMK AO2
Loading
Personal Weather Stations






























Interactive Weather Map New forecast layout! Learn more

10-Day Weather Forecast

Advertisements
Track Severe Weather on mobile